• Join FlightAware (Why Join?)
  • Login
  • US Flag 
04:50AM EST


 

Airport Tracker/Info


-or-


 

Live Flight TrackerFlight Track Log ✈ BJS542 ✈ 05-May-2013 ✈ KLUK - KBED

Flight Track Log - Related Links

Times and Time Zones

All times are in EDT time to prevent confusion due to time zone crossing. See the BJS542 flight status page for this flight to view local times or setup timezone preferences in your user account.

Time Position Orientation Groundspeed Altitude Reporting Facility
EDT Latitude Longitude Course Direction KTS MPH feet Rate Location/Type
03:57PM 39.0833 -84.4167 90° East 144 166 1,400  Level Cincinnati TRACON
03:58PM 39.0833 -84.3333 90° East 244 281 4,400 1,920 Climbing Cincinnati TRACON
03:59PM 39.1322 -84.3303 North 295 339 5,200 2,940 Climbing Indianapolis Center
04:01PM 39.3081 -84.3767 348° North 328 377 12,800 3,600 Climbing Indianapolis Center
04:02PM 39.4336 -84.3986 352° North 379 436 16,400 3,420 Climbing Indianapolis Center
04:03PM 39.5319 -84.3367 26° Northeast 393 452 19,900 3,300 Climbing Indianapolis Center
04:04PM 39.6267 -84.2681 29° Northeast 386 444 23,300 2,940 Climbing Indianapolis Center
04:05PM 39.7261 -84.1972 29° Northeast 400 460 26,000 2,400 Climbing Indianapolis Center
04:06PM 39.8272 -84.1211 30° Northeast 412 474 28,300 2,220 Climbing Indianapolis Center
04:07PM 39.9161 -84.0153 42° Northeast 424 488 30,600 2,040 Climbing Indianapolis Center
04:08PM 40.0053 -83.9039 44° Northeast 435 501 32,600 1,740 Climbing Indianapolis Center
04:09PM 40.0972 -83.7897 44° Northeast 446 513 34,300 1,020 Climbing Indianapolis Center
04:10PM 40.1936 -83.6669 44° Northeast 471 542 34,800 720 Climbing Indianapolis Center
04:11PM 40.2919 -83.5436 44° Northeast 481 554 35,800 1,740 Climbing Indianapolis Center
04:12PM 40.4014 -83.4053 44° Northeast 462 532 38,500 1,980 Climbing Indianapolis Center
04:13PM 40.4936 -83.2867 44° Northeast 460 529 40,000 1,560 Climbing Indianapolis Center
04:14PM 40.5836 -83.1733 44° Northeast 445 512 41,800 1,140 Climbing Indianapolis Center
04:15PM 40.6767 -83.0281 50° Northeast 442 509 42,600 600 Climbing Cleveland Center
04:17PM 40.7686 -82.7433 67° East 444 511 43,800 600 Climbing Indianapolis Center
04:18PM 40.8144 -82.5969 67° East 436 502 44,400 540 Climbing Cleveland Center
04:19PM 40.8628 -82.4447 67° East 436 502 45,000 300 Climbing Cleveland Center
04:20PM 40.9175 -82.2814 66° East 436 502 45,000  Level Cleveland Center
04:21PM 40.9678 -82.1231 67° East 447 514 45,000  Level Cleveland Center
04:22PM 41.0156 -81.9672 68° East 454 522 45,000  Level Cleveland Center
04:23PM 41.0653 -81.8086 67° East 454 522 45,000  Level Cleveland Center
04:24PM 41.1128 -81.6525 68° East 454 522 45,000  Level Cleveland Center
04:25PM 41.1661 -81.4989 65° Northeast 454 522 45,000  Level Cleveland Center
04:26PM 41.2133 -81.3394 68° East 454 522 45,000  Level Cleveland Center
04:27PM 41.2600 -81.1853 68° East 454 522 45,000  Level Cleveland Center
04:28PM 41.3086 -81.0253 68° East 454 522 45,000  Level Cleveland Center
04:29PM 41.3572 -80.8708 67° East 454 522 45,000  Level Cleveland Center
04:30PM 41.4056 -80.7106 68° East 454 522 45,000  Level Cleveland Center
04:31PM 41.4514 -80.5528 69° East 454 522 45,000  Level Cleveland Center
04:32PM 41.5011 -80.3919 68° East 460 529 45,000  Level Cleveland Center
04:33PM 41.5508 -80.2336 67° East 460 529 45,000  Level Cleveland Center
04:34PM 41.5961 -80.0750 69° East 460 529 45,000  Level Cleveland Center
04:35PM 41.6411 -79.9164 69° East 454 522 45,000  Level Cleveland Center
04:36PM 41.6800 -79.7714 70° East 454 522 45,000  Level Cleveland Center
04:37PM 41.7347 -79.5981 67° East 454 522 45,000  Level Cleveland Center
04:38PM 41.7814 -79.4386 69° East 454 522 45,000  Level Cleveland Center
04:39PM 41.8275 -79.2764 69° East 454 522 45,000  Level Cleveland Center
04:41PM 41.8742 -79.0983 71° East  Level FlightAware Approximate
04:41PM 41.9133 -78.9731 71° East 454 522 45,000  Level Cleveland Center
04:42PM 41.9628 -78.7958 69° East 454 522 45,000  Level Cleveland Center
04:43PM 42.0081 -78.6325 69° East 454 522 45,000  Level Cleveland Center
04:44PM 42.0531 -78.4719 69° East 454 522 45,000  Level Cleveland Center
04:45PM 42.0981 -78.3081 70° East 454 522 45,000  Level Cleveland Center
04:46PM 42.1369 -78.1667 70° East 449 517 45,000  Level Cleveland Center
04:47PM 42.1814 -78.0053 70° East 449 517 45,000  Level Cleveland Center
04:48PM 42.2253 -77.8408 70° East 455 524 45,000  Level Cleveland Center
04:49PM 42.2672 -77.6789 71° East 455 524 45,000  Level Cleveland Center
04:50PM 42.3108 -77.5114 71° East 455 524 45,000  Level Cleveland Center
04:52PM 42.3794 -77.2556 70° East 467 537 45,000  Level Boston Center
04:53PM 42.4253 -77.0567 73° East 467 537 45,000  Level Boston Center
04:54PM 42.4406 -76.8858 83° East 462 532 45,000  Level Boston Center
04:55PM 42.4475 -76.7033 87° East 467 537 45,000  Level Boston Center
04:56PM 42.4539 -76.5294 87° East 467 537 45,000  Level Boston Center
04:57PM 42.4600 -76.3525 87° East 467 537 45,000 -360 Level Boston Center
04:58PM 42.4681 -76.1756 86° East 467 537 44,300 -1,140 Descending Boston Center
04:59PM 42.4758 -76.0014 86° East 467 537 42,800 -1,860 Descending Boston Center
05:01PM 42.4861 -75.6583 88° East 452 520 38,800 -1,980 Descending Boston Center
05:02PM 42.4906 -75.4925 88° East 445 512 36,900 -1,980 Descending Boston Center
05:03PM 42.4972 -75.3239 87° East 439 505 34,900 -2,040 Descending Boston Center
05:04PM 42.5014 -75.1522 88° East 439 505 32,900 -2,040 Descending Boston Center
05:05PM 42.5056 -74.9778 88° East 450 518 30,900 -1,560 Descending Boston Center
05:06PM 42.5097 -74.7750 88° East 450 518 29,500 -960 Descending Boston Center
05:07PM 42.5131 -74.6061 88° East 450 518 28,900 -300 Descending Boston Center
05:08PM 42.5161 -74.4400 89° East 450 518 29,000  Climbing Boston Center
05:09PM 42.5228 -74.2881 87° East 438 504 29,000  Level Boston Center
05:10PM 42.5275 -74.1219 88° East 438 504 29,000  Level Boston Center
05:11PM 42.5300 -73.9558 89° East 438 504 29,000  Level Boston Center
05:12PM 42.5319 -73.7897 89° East 438 504 29,000  Level Boston Center
05:13PM 42.5339 -73.6206 89° East 438 504 29,000  Level Boston Center
05:14PM 42.5375 -73.4572 88° East 438 504 29,000 -180 Level Boston Center
05:15PM 42.5411 -73.2742 88° East 452 520 28,700 -780 Descending Boston Center
05:16PM 42.5425 -73.0742 89° East 452 520 27,400 -1,200 Descending Boston Center
05:17PM 42.5433 -72.9050 90° East 452 520 26,400 -960 Descending Boston Center
05:19PM 42.5439 -72.7444 90° East 444 511 25,400 -1,200 Descending Boston Center
05:20PM 42.5461 -72.5472 89° East 434 499 23,800 -2,640 Descending Boston Center
05:21PM 42.5464 -72.4006 90° East 410 472 20,200 -3,600 Descending Boston Center
05:22PM 42.5461 -72.2542 90° East 376 433 16,700 -4,080 Descending Boston Center
05:23PM 42.5458 -72.1161 90° East 362 417 12,100 -3,300 Descending Boston Center
05:24PM 42.5392 -71.9864 94° East 357 411 10,100 -1,620 Descending Boston Center
05:25PM 42.5303 -71.8822 97° East 302 348 8,900 -600 Descending Boston Center
05:26PM 42.5194 -71.7781 98° East 285 328 8,900 -1,380 Level Boston Center
05:27PM 42.5103 -71.6769 97° East 271 312 6,200 -2,400 Descending Boston Center
05:28PM 42.5014 -71.5783 97° East 271 312 4,100 -2,100 Descending Boston Center
05:29PM 42.4903 -71.4914 100° East 246 283 2,100 -1,140 Descending Boston Center
05:30PM 42.4833 -71.4239 98° East 212 244 1,900 -600 Descending Boston Center
05:31PM 42.4764 -71.3536 98° East 181 208 900 -840 Descending Boston Center
05:32PM 42.4739 -71.3114 95° East 137 158 300 11,520 Descending Boston Center
05:33PM 42.4672 -71.2525 99° East 137 158 24,000 11,820 Climbing Boston Center
05:34PM 42.4603 -71.2047 101° East 137 158 24,000  Level Boston Center
05:35PM 42.4556 -71.1542 97° East 137 158 24,000  Level Boston Center
05:36PM 42.4511 -71.1147 99° East 137 158 24,000  Level Boston Center
05:37PM 42.4489 -71.1064 110° East 137 158 24,000  Level Boston Center
05:38PM 42.4489 -71.1064 144° Southeast 137 158 24,000  Level Boston Center
05:40PM 42.4489 -71.1064 144° Southeast 137 158 24,000  Level Boston Center